Darstellungsparameter: Aktuell verwendete Einstellungen:
Skalierung der Graphiken ... ?
xyx+y,   Skalierungsfaktor:      Skalierung: Modus: x, Faktor: 1
Darstellungszeitraum ... ?
Vom - - bis: - -   Zeitraum: 12.08.2013 - 11.08.2016
Min/Max/Avg-Anzeige ... ?
Zeige MMA aktuell
Zeige MMA Monat
Zeige MMA alles
Zeige --A aktuell
Zeige --A Monat
Zeige --A alles
Keine MMA-Anzeige
MMA:
Keine MMA-Graphiken
MMA-Basis: 12.08.2013 - 11.08.2016
Quicknavigation für Darstellung... ?
Tage:      1T, 2T, 3T, 5T -1T -2T -3T -5T +1T +2T +3T +5T
Wochen: 1W, 2W, 3W -1W -2W -3W +1W +2W +3W
Monate: 1M, 3M, 6M -1M -3M -6M +1M +3M +6M
Jahre:    1J, 3J, 5J, 10J -1J -3J -5J -10J +1J +3J +5J +10J
Nutze für die Darstellung ... ?
Originaldaten oder ...
Mittelwerte Minima Maxima auf...
Stundenbasis Tagesbasis Wochenbasis
Monatsbasis Jahresbasis      Datenbasis: Mittelwerte auf Tagesbasis
Darstellen als:
Statistik (Auto) Statistik J:M      Darstellung:
Zur Graphik,    zurück zur Übersicht aller Sensoren.
 
Tabellarische Datenbersicht: ?
 
Sensor: Nr:Datum:Temp:Feuchte:Taupunkt:
Aussen-T/F 1 12-08-2013 00:00:00 15.88229 C 83.6007 % 13.11 C
2 13-08-2013 00:00:00 15.61319 C 81.7326 % 12.5 C
3 14-08-2013 00:00:00 14.4559 C 81.5660 % 11.34 C
4 15-08-2013 00:00:00 16.30035 C 77.9028 % 12.44 C
5 16-08-2013 00:00:00 17.96319 C 75.3750 % 13.55 C
6 17-08-2013 00:00:00 20.47965 C 70.5158 % 14.94 C
7 18-08-2013 00:00:00 19.29614 C 82.4596 % 16.23 C
8 19-08-2013 00:00:00 17.75764 C 80.2465 % 14.31 C
9 20-08-2013 00:00:00 14.96458 C 79.6111 % 11.47 C
10 21-08-2013 00:00:00 15.16285 C 81.7743 % 12.07 C
11 22-08-2013 00:00:00 16.33576 C 83.6111 % 13.56 C
12 23-08-2013 00:00:00 18.61667 C 76.7708 % 14.46 C
13 24-08-2013 00:00:00 16.10208 C 89.7396 % 14.42 C
14 25-08-2013 00:00:00 16.06806 C 95.2708 % 15.31 C
15 26-08-2013 00:00:00 15.16806 C 96.5451 % 14.62 C
16 27-08-2013 00:00:00 15.88472 C 89.9792 % 14.24 C
17 28-08-2013 00:00:00 15.65312 C 87.5035 % 13.59 C
18 29-08-2013 00:00:00 14.74062 C 90.2153 % 13.15 C
19 30-08-2013 00:00:00 15.73924 C 87.8472 % 13.73 C
20 31-08-2013 00:00:00 16.33229 C 86.2986 % 14.04 C
21 01-09-2013 00:00:00 14.50938 C 73.5035 % 9.83 C
22 02-09-2013 00:00:00 17.48924 C 69.9375 % 11.95 C
23 03-09-2013 00:00:00 18.08299 C 80.6319 % 14.7 C
24 04-09-2013 00:00:00 17.74583 C 85.1701 % 15.22 C
25 05-09-2013 00:00:00 18.47349 C 84.5181 % 15.82 C
Sensor: Nr:Datum:Temp:Feuchte:Taupunkt:
Aussen-T/F 26 06-09-2013 00:00:00 22.68615 C 74.2769 % 17.87 C
27 07-09-2013 00:00:00 18.36354 C 91.5208 % 16.96 C
28 08-09-2013 00:00:00 14.78542 C 93.9097 % 13.81 C
29 09-09-2013 00:00:00 14.16944 C 86.9965 % 12.04 C
30 10-09-2013 00:00:00 13.35073 C 82.4891 % 10.43 C
31 11-09-2013 00:00:00 13.00912 C 87.8066 % 11.04 C
32 12-09-2013 00:00:00 13.53472 C 92.7535 % 12.39 C
33 13-09-2013 00:00:00 14.67363 C 88.3553 % 12.77 C
34 14-09-2013 00:00:00 15.8191 C 93.1007 % 14.71 C
35 15-09-2013 00:00:00 14.41667 C 87.2500 % 12.33 C
36 16-09-2013 00:00:00 13.23333 C 81.3229 % 10.11 C
37 17-09-2013 00:00:00 10.58958 C 82.5833 % 7.75 C
38 18-09-2013 00:00:00 12.57951 C 92.8750 % 11.46 C
39 19-09-2013 00:00:00 11.89444 C 86.6076 % 9.73 C
40 20-09-2013 00:00:00 13.91806 C 85.7778 % 11.58 C
41 21-09-2013 00:00:00 12.20868 C 91.0000 % 10.78 C
42 22-09-2013 00:00:00 13.3788 C 90.7668 % 11.9 C
43 23-09-2013 00:00:00 15.46493 C 89.1076 % 13.68 C
44 24-09-2013 00:00:00 12.34792 C 94.6979 % 11.52 C
45 25-09-2013 00:00:00 14.08646 C 94.5347 % 13.22 C
46 26-09-2013 00:00:00 14.58924 C 91.1389 % 13.16 C
47 27-09-2013 00:00:00 11.25312 C 89.0660 % 9.52 C
48 28-09-2013 00:00:00 10.575 C 88.4286 % 8.74 C
49 29-09-2013 00:00:00 11.89028 C 85.1667 % 9.48 C
50 30-09-2013 00:00:00 9.80833 C 87.1910 % 7.78 C
Sensor: Nr:Datum:Temp:Feuchte:Taupunkt:
Aussen-T/F 51 01-10-2013 00:00:00 11.38264 C 80.5903 % 8.17 C
52 02-10-2013 00:00:00 9.01493 C 82.1111 % 6.13 C
53 03-10-2013 00:00:00 8.84479 C 80.9549 % 5.76 C
54 04-10-2013 00:00:00 11.33993 C 91.6215 % 10.03 C
55 05-10-2013 00:00:00 12.69583 C 97.5486 % 12.32 C
56 06-10-2013 00:00:00 13.60313 C 92.6910 % 12.44 C
57 07-10-2013 00:00:00 13.21667 C 94.6806 % 12.38 C
58 08-10-2013 00:00:00 13.44791 C 95.3505 % 12.72 C
59 09-10-2013 00:00:00 13.86667 C 91.5938 % 12.52 C
60 10-10-2013 00:00:00 8.4625 C 94.6285 % 7.65 C
61 11-10-2013 00:00:00 6.86042 C 97.1285 % 6.44 C
62 12-10-2013 00:00:00 6.31215 C 95.1910 % 5.6 C
63 13-10-2013 00:00:00 7.69167 C 90.0208 % 6.16 C
64 14-10-2013 00:00:00 9.89091 C 92.2182 % 8.69 C
65 15-10-2013 00:00:00 10.43275 C 94.2113 % 9.54 C
66 16-10-2013 00:00:00 10.04523 C 95.8799 % 9.42 C
67 17-10-2013 00:00:00 12.70972 C 88.6771 % 10.89 C
68 18-10-2013 00:00:00 11.80868 C 95.7083 % 11.15 C
69 19-10-2013 00:00:00 11.72702 C 95.4877 % 11.03 C
70 20-10-2013 00:00:00 15.28507 C 93.8021 % 14.29 C
71 21-10-2013 00:00:00 15.075 C 89.9861 % 13.45 C
72 22-10-2013 00:00:00 15.7614 C 91.7404 % 14.42 C
73 23-10-2013 00:00:00 15.81476 C 92.6790 % 14.63 C
74 24-10-2013 00:00:00 13.67431 C 95.5069 % 12.97 C
75 25-10-2013 00:00:00 13.01701 C 96.8958 % 12.54 C
Sensor: Nr:Datum:Temp:Feuchte:Taupunkt:
Aussen-T/F 76 26-10-2013 00:00:00 16.41144 C 95.1808 % 15.64 C
77 27-10-2013 00:00:00 14.94896 C 83.9028 % 12.25 C
78 28-10-2013 00:00:00 15.40962 C 78.1385 % 11.62 C
79 29-10-2013 00:00:00 11.12569 C 77.4901 % 7.34 C
80 30-10-2013 00:00:00 7.81825 C 86.6702 % 5.74 C
81 31-10-2013 00:00:00 5.27708 C 94.3854 % 4.45 C
82 01-11-2013 00:00:00 9.4316 C 89.5208 % 7.8 C
83 02-11-2013 00:00:00 12.79889 C 90.4354 % 11.27 C
84 03-11-2013 00:00:00 9.93611 C 83.6701 % 7.31 C
85 04-11-2013 00:00:00 9.80526 C 87.0912 % 7.76 C
86 05-11-2013 00:00:00 6.72153 C 87.5556 % 4.81 C
87 06-11-2013 00:00:00 10.70215 C 88.7348 % 8.92 C
88 07-11-2013 00:00:00 15.04132 C 84.5243 % 12.46 C
89 08-11-2013 00:00:00 11.92093 C 93.0372 % 10.83 C
90 09-11-2013 00:00:00 9.48785 C 80.9931 % 6.39 C
91 10-11-2013 00:00:00 6.68715 C 90.9653 % 5.32 C
92 11-11-2013 00:00:00 4.00764 C 96.3542 % 3.48 C
93 12-11-2013 00:00:00 4.41146 C 93.7951 % 3.5 C
94 13-11-2013 00:00:00 6.28491 C 93.5579 % 5.32 C
95 14-11-2013 00:00:00 3.2816 C 95.0833 % 2.57 C
96 15-11-2013 00:00:00 4.99201 C 90.5035 % 3.57 C
97 16-11-2013 00:00:00 3.05 C 91.8507 % 1.86 C
98 17-11-2013 00:00:00 3.2184 C 94.6285 % 2.44 C
99 18-11-2013 00:00:00 5.38287 C 94.0916 % 4.51 C
100 19-11-2013 00:00:00 6.22 C 91.5647 % 4.95 C
Sensor: Nr:Datum:Temp:Feuchte:Taupunkt:
Aussen-T/F 101 20-11-2013 00:00:00 3.96643 C 91.7483 % 2.75 C
102 21-11-2013 00:00:00 4.05603 C 89.4310 % 2.48 C
103 22-11-2013 00:00:00 4.42 C 86.5545 % 2.38 C
104 23-11-2013 00:00:00 7.03092 C 87.0000 % 5.02 C
105 24-11-2013 00:00:00 5.71435 C 88.4739 % 3.96 C
106 25-11-2013 00:00:00 2.65439 C 93.3216 % 1.69 C
107 26-11-2013 00:00:00 0.53125 C 94.5590 % -0.24 C
108 27-11-2013 00:00:00 0.63854 C 92.5035 % -0.43 C
109 28-11-2013 00:00:00 3.45709 C 94.3022 % 2.63 C
110 29-11-2013 00:00:00 5.6434 C 91.5833 % 4.38 C
111 30-11-2013 00:00:00 4.32604 C 93.7951 % 3.42 C
112 01-12-2013 00:00:00 5.01254 C 94.7178 % 4.24 C
113 02-12-2013 00:00:00 4.76458 C 93.0486 % 3.74 C
114 03-12-2013 00:00:00 -0.45729 C 97.1806 % -0.85 C
115 04-12-2013 00:00:00 3.27917 C 91.8924 % 2.09 C
116 05-12-2013 00:00:00 3.93475 C 87.9291 % 2.12 C
117 06-12-2013 00:00:00 3.76181 C 74.9583 % -0.26 C
118 07-12-2013 00:00:00 4.38715 C 85.8194 % 2.23 C
119 08-12-2013 00:00:00 6.92188 C 87.3785 % 4.97 C
120 09-12-2013 00:00:00 6.42222 C 84.1806 % 3.95 C
121 10-12-2013 00:00:00 3.24896 C 95.9236 % 2.66 C
122 11-12-2013 00:00:00 3.72465 C 96.5903 % 3.23 C
123 12-12-2013 00:00:00 4.08993 C 92.2118 % 2.94 C
124 13-12-2013 00:00:00 2.65694 C 90.5313 % 1.27 C
125 14-12-2013 00:00:00 3.58986 C 92.6923 % 2.52 C
Sensor: Nr:Datum:Temp:Feuchte:Taupunkt:
Aussen-T/F 126 15-12-2013 00:00:00 4.99688 C 85.9340 % 2.84 C
127 16-12-2013 00:00:00 1.49676 C 94.6511 % 0.73 C
128 17-12-2013 00:00:00 1.25451 C 95.3924 % 0.6 C
129 18-12-2013 00:00:00 4.19965 C 94.2153 % 3.35 C
130 19-12-2013 00:00:00 8.13715 C 88.2813 % 6.32 C
131 20-12-2013 00:00:00 4.38403 C 92.2708 % 3.24 C
132 21-12-2013 00:00:00 4.81354 C 81.8229 % 1.98 C
133 22-12-2013 00:00:00 8.81493 C 82.7222 % 6.04 C
134 23-12-2013 00:00:00 8.42341 C 85.6230 % 6.16 C
135 24-12-2013 00:00:00 11.57579 C 73.6140 % 7.03 C
136 25-12-2013 00:00:00 8.41944 C 92.4444 % 7.27 C
137 26-12-2013 00:00:00 6.06579 C 94.8195 % 5.3 C
138 27-12-2013 00:00:00 6.6549 C 85.1608 % 4.34 C
139 28-12-2013 00:00:00 9.14444 C 90.1181 % 7.61 C
140 29-12-2013 00:00:00 4.76463 C 93.9695 % 3.88 C
141 30-12-2013 00:00:00 4.17107 C 89.7934 % 2.65 C
142 31-12-2013 00:00:00 2.91045 C 89.5522 % 1.37 C
143 01-01-2014 00:00:00 6.46912 C 86.4737 % 4.38 C
144 02-01-2014 00:00:00 8.31947 C 88.5649 % 6.54 C
145 03-01-2014 00:00:00 8.74861 C 86.5347 % 6.63 C
146 04-01-2014 00:00:00 7.47049 C 88.5833 % 5.71 C
147 05-01-2014 00:00:00 6.13111 C 91.4622 % 4.85 C
148 06-01-2014 00:00:00 8.33819 C 89.1736 % 6.66 C
149 07-01-2014 00:00:00 10.72882 C 85.7708 % 8.45 C
150 08-01-2014 00:00:00 10.3965 C 86.9027 % 8.31 C
Sensor: Nr:Datum:Temp:Feuchte:Taupunkt:
Aussen-T/F 151 09-01-2014 00:00:00 9.27876 C 85.9961 % 7.06 C
152 10-01-2014 00:00:00 5.59896 C 86.9757 % 3.61 C
153 11-01-2014 00:00:00 3.80382 C 93.2049 % 2.81 C
154 12-01-2014 00:00:00 0.34545 C 97.0618 % -0.06 C
155 13-01-2014 00:00:00 3.73194 C 95.9965 % 3.15 C
156 14-01-2014 00:00:00 5.06036 C 94.4536 % 4.25 C
157 15-01-2014 00:00:00 4.1934 C 91.9444 % 3 C
158 16-01-2014 00:00:00 6.5375 C 93.3160 % 5.54 C
159 17-01-2014 00:00:00 6.75 C 92.8021 % 5.67 C
160 18-01-2014 00:00:00 4.5321 C 90.4686 % 3.11 C
161 19-01-2014 00:00:00 4.621 C 92.0569 % 3.44 C
162 20-01-2014 00:00:00 4.32836 C 94.6567 % 3.55 C
163 21-01-2014 00:00:00 3.49792 C 93.6632 % 2.58 C
164 22-01-2014 00:00:00 3.18571 C 95.3022 % 2.51 C
165 23-01-2014 00:00:00 3.72927 C 92.3049 % 2.6 C
166 24-01-2014 00:00:00 3.90268 C 93.5670 % 2.96 C
167 25-01-2014 00:00:00 2.8165 C 94.8000 % 2.07 C
168 26-01-2014 00:00:00 5.11851 C 83.3630 % 2.54 C
169 27-01-2014 00:00:00 4.4199 C 87.2094 % 2.48 C
170 28-01-2014 00:00:00 2.36869 C 88.8889 % 0.73 C
171 29-01-2014 00:00:00 1.54036 C 85.8253 % -0.57 C
172 30-01-2014 00:00:00 1.98611 C 84.2049 % -0.39 C
173 31-01-2014 00:00:00 1.03819 C 91.0799 % -0.25 C
174 01-02-2014 00:00:00 4.63819 C 89.8646 % 3.12 C
175 02-02-2014 00:00:00 4.14306 C 90.0729 % 2.66 C
Sensor: Nr:Datum:Temp:Feuchte:Taupunkt:
Aussen-T/F 176 03-02-2014 00:00:00 1.00938 C 95.5486 % 0.38 C
177 04-02-2014 00:00:00 4.28785 C 89.7083 % 2.75 C
178 05-02-2014 00:00:00 4.74236 C 89.7049 % 3.2 C
179 06-02-2014 00:00:00 8.42431 C 76.6181 % 4.56 C
180 07-02-2014 00:00:00 8.79132 C 78.4410 % 5.25 C
181 08-02-2014 00:00:00 6.5309 C 83.7222 % 3.98 C
182 09-02-2014 00:00:00 5.34375 C 80.9306 % 2.34 C
183 10-02-2014 00:00:00 3.38819 C 87.2500 % 1.48 C
184 11-02-2014 00:00:00 5.41354 C 82.3819 % 2.66 C
185 12-02-2014 00:00:00 5.44028 C 81.1319 % 2.47 C
186 13-02-2014 00:00:00 5.71771 C 88.4479 % 3.96 C
187 14-02-2014 00:00:00 5.64722 C 85.6979 % 3.44 C
188 15-02-2014 00:00:00 9.70669 C 79.3415 % 6.31 C
189 16-02-2014 00:00:00 7.36493 C 80.5694 % 4.25 C
190 17-02-2014 00:00:00 3.59861 C 91.7118 % 2.38 C
191 18-02-2014 00:00:00 3.38715 C 94.0590 % 2.52 C
192 19-02-2014 00:00:00 7.825 C 84.9722 % 5.46 C
193 20-02-2014 00:00:00 8.68958 C 82.6215 % 5.9 C
194 21-02-2014 00:00:00 7.64062 C 84.5451 % 5.21 C
195 22-02-2014 00:00:00 4.99861 C 87.1563 % 3.05 C
196 23-02-2014 00:00:00 5.94204 C 83.6694 % 3.39 C
197 24-02-2014 00:00:00 5.86389 C 80.9444 % 2.85 C
198 25-02-2014 00:00:00 6.68681 C 82.1910 % 3.87 C
199 26-02-2014 00:00:00 8.58182 C 81.5382 % 5.61 C
200 27-02-2014 00:00:00 5.86275 C 84.1961 % 3.41 C
Sensor: Nr:Datum:Temp:Feuchte:Taupunkt:
Aussen-T/F 201 28-02-2014 00:00:00 6.2146 C 87.8248 % 4.35 C
202 01-03-2014 00:00:00 5.44375 C 88.4410 % 3.69 C
203 02-03-2014 00:00:00 3.55069 C 87.5208 % 1.68 C
204 03-03-2014 00:00:00 5.27743 C 86.6458 % 3.24 C
205 04-03-2014 00:00:00 4.21701 C 86.7118 % 2.2 C
206 05-03-2014 00:00:00 4.68235 C 86.5059 % 2.63 C
207 06-03-2014 00:00:00 3.87951 C 89.4306 % 2.3 C
208 07-03-2014 00:00:00 6.23037 C 80.7383 % 3.17 C
209 08-03-2014 00:00:00 7.3847 C 80.0427 % 4.18 C
210 09-03-2014 00:00:00 7.27263 C 76.4772 % 3.42 C
211 10-03-2014 00:00:00 7.44444 C 75.5035 % 3.41 C
212 11-03-2014 00:00:00 8.4184 C 78.6424 % 4.93 C
213 12-03-2014 00:00:00 9.07812 C 74.1354 % 4.72 C
214 13-03-2014 00:00:00 8.16007 C 73.3681 % 3.69 C
215 14-03-2014 00:00:00 7.91944 C 76.8993 % 4.12 C
216 15-03-2014 00:00:00 8.97326 C 77.3021 % 5.22 C
217 16-03-2014 00:00:00 11.50486 C 77.2500 % 7.67 C
218 17-03-2014 00:00:00 10.27882 C 81.5486 % 7.27 C
219 18-03-2014 00:00:00 9.4066 C 83.2882 % 6.72 C
220 19-03-2014 00:00:00 12.2875 C 70.5521 % 7.1 C
221 20-03-2014 00:00:00 12.49333 C 67.2772 % 6.6 C
222 21-03-2014 00:00:00 13.1375 C 66.5069 % 7.05 C
223 22-03-2014 00:00:00 8.65208 C 83.0799 % 5.95 C
224 23-03-2014 00:00:00 6.03507 C 81.4861 % 3.11 C
225 24-03-2014 00:00:00 5.42632 C 80.7404 % 2.39 C
Sensor: Nr:Datum:Temp:Feuchte:Taupunkt:
Aussen-T/F 226 25-03-2014 00:00:00 4.1625 C 82.4271 % 1.44 C
227 26-03-2014 00:00:00 4.56076 C 78.8125 % 1.21 C
228 27-03-2014 00:00:00 8.14604 C 73.6475 % 3.73 C
229 28-03-2014 00:00:00 10.60972 C 66.4167 % 4.62 C
230 29-03-2014 00:00:00 10.34963 C 70.5809 % 5.24 C
231 30-03-2014 00:00:00 9.15619 C 76.1429 % 5.18 C
232 31-03-2014 00:00:00 12.96562 C 65.8924 % 6.75 C
233 01-04-2014 00:00:00 13.77519 C 67.7366 % 7.92 C
234 02-04-2014 00:00:00 13.90458 C 68.9754 % 8.31 C
235 03-04-2014 00:00:00 12.54324 C 77.5811 % 8.74 C
236 04-04-2014 00:00:00 14.95971 C 74.9173 % 10.55 C
237 05-04-2014 00:00:00 13.00531 C 86.2612 % 10.77 C
238 06-04-2014 00:00:00 11.67782 C 83.0879 % 8.91 C
239 07-04-2014 00:00:00 15.95041 C 75.4713 % 11.62 C
240 08-04-2014 00:00:00 12.18521 C 67.1585 % 6.28 C
241 09-04-2014 00:00:00 9.27426 C 75.9154 % 5.25 C
242 10-04-2014 00:00:00 10.31543 C 77.0864 % 6.48 C
243 11-04-2014 00:00:00 14.56849 C 72.5000 % 9.69 C
244 12-04-2014 00:00:00 12.65368 C 70.8982 % 7.52 C
245 13-04-2014 00:00:00 11.60669 C 71.0599 % 6.55 C
246 14-04-2014 00:00:00 9.7593 C 71.2491 % 4.81 C
247 15-04-2014 00:00:00 7.10171 C 73.7991 % 2.75 C
248 16-04-2014 00:00:00 12.97192 C 49.4521 % 2.65 C
249 17-04-2014 00:00:00 9.85313 C 63.3021 % 3.22 C
250 18-04-2014 00:00:00 10.72049 C 64.8750 % 4.39 C
Sensor: Nr:Datum:Temp:Feuchte:Taupunkt:
Aussen-T/F 251 19-04-2014 00:00:00 10.82049 C 71.8993 % 5.96 C
252 20-04-2014 00:00:00 14.91825 C 70.5509 % 9.62 C
253 21-04-2014 00:00:00 12.49479 C 77.9896 % 8.77 C
254 22-04-2014 00:00:00 12.82847 C 85.6076 % 10.48 C
255 23-04-2014 00:00:00 13.43958 C 81.1771 % 10.28 C
256 24-04-2014 00:00:00 15.42535 C 79.0035 % 11.8 C
257 25-04-2014 00:00:00 16.71562 C 74.1319 % 12.09 C
258 26-04-2014 00:00:00 15.2 C 74.7604 % 10.75 C
259 27-04-2014 00:00:00 13.07674 C 81.7986 % 10.04 C
260 28-04-2014 00:00:00 12.80243 C 79.8715 % 9.42 C
261 29-04-2014 00:00:00 13.43403 C 90.3056 % 11.88 C
262 30-04-2014 00:00:00 14.53507 C 84.7500 % 12 C
263 01-05-2014 00:00:00 14.73611 C 81.3611 % 11.58 C
264 02-05-2014 00:00:00 11.71319 C 86.6736 % 9.57 C
265 03-05-2014 00:00:00 10.92708 C 61.0069 % 3.71 C
266 04-05-2014 00:00:00 9.61042 C 68.0590 % 4.02 C
267 05-05-2014 00:00:00 12.60069 C 67.5521 % 6.76 C
268 06-05-2014 00:00:00 13.72083 C 74.2778 % 9.23 C
269 07-05-2014 00:00:00 13.05764 C 84.9931 % 10.6 C
270 08-05-2014 00:00:00 12.32847 C 84.6146 % 9.81 C
271 09-05-2014 00:00:00 15.33403 C 71.0833 % 10.13 C
272 10-05-2014 00:00:00 12.40903 C 81.6528 % 9.36 C
273 11-05-2014 00:00:00 11.45764 C 80.1667 % 8.16 C
274 12-05-2014 00:00:00 11.1941 C 74.9167 % 6.92 C
275 13-05-2014 00:00:00 10.30729 C 85.3368 % 7.96 C
Sensor: Nr:Datum:Temp:Feuchte:Taupunkt:
Aussen-T/F 276 14-05-2014 00:00:00 10.63542 C 76.9514 % 6.77 C
277 15-05-2014 00:00:00 10.00382 C 80.4757 % 6.8 C
278 16-05-2014 00:00:00 13.25347 C 73.1250 % 8.55 C
279 17-05-2014 00:00:00 14.22292 C 71.7500 % 9.2 C
280 18-05-2014 00:00:00 15.4809 C 74.3021 % 10.93 C
281 19-05-2014 00:00:00 17.57188 C 70.6944 % 12.19 C
282 20-05-2014 00:00:00 19.46562 C 67.3681 % 13.26 C
283 21-05-2014 00:00:00 20.29792 C 68.1181 % 14.23 C
284 22-05-2014 00:00:00 20.21806 C 65.7465 % 13.61 C
285 23-05-2014 00:00:00 15.52639 C 89.6667 % 13.84 C
286 24-05-2014 00:00:00 14.72993 C 81.1514 % 11.53 C
287 25-05-2014 00:00:00 15.25071 C 74.9149 % 10.83 C
288 26-05-2014 00:00:00 16.8625 C 80.3056 % 13.45 C
289 27-05-2014 00:00:00 15.19431 C 94.7346 % 14.36 C
290 28-05-2014 00:00:00 14.58118 C 88.4000 % 12.69 C
291 29-05-2014 00:00:00 13.44653 C 87.1042 % 11.35 C
292 30-05-2014 00:00:00 13.2316 C 70.4167 % 7.97 C
293 31-05-2014 00:00:00 13.40382 C 74.2639 % 8.92 C
294 01-06-2014 00:00:00 15.49273 C 69.6545 % 9.98 C
295 02-06-2014 00:00:00 15.88943 C 67.9715 % 9.99 C
296 03-06-2014 00:00:00 15.78662 C 74.8627 % 11.34 C
297 04-06-2014 00:00:00 14.95388 C 86.4155 % 12.71 C
298 05-06-2014 00:00:00 14.55765 C 67.7687 % 8.68 C
299 06-06-2014 00:00:00 17.20312 C 67.7778 % 11.2 C
300 07-06-2014 00:00:00 20.77257 C 72.3750 % 15.62 C
Sensor: Nr:Datum:Temp:Feuchte:Taupunkt:
Aussen-T/F 301 08-06-2014 00:00:00 24.09514 C 70.7431 % 18.45 C
302 09-06-2014 00:00:00 25.74583 C 69.9583 % 19.85 C
303 10-06-2014 00:00:00 23.66632 C 70.6389 % 18.01 C
304 11-06-2014 00:00:00 20.10803 C 81.3175 % 16.81 C
305 12-06-2014 00:00:00 19.97431 C 66.4583 % 13.54 C
306 13-06-2014 00:00:00 18.37014 C 68.1597 % 12.4 C
307 14-06-2014 00:00:00 17.27465 C 65.5104 % 10.76 C
308 15-06-2014 00:00:00 16.86944 C 67.1875 % 10.75 C
309 16-06-2014 00:00:00 15.61944 C 74.7396 % 11.15 C
310 17-06-2014 00:00:00 17.41354 C 66.8819 % 11.2 C
311 18-06-2014 00:00:00 17.76319 C 71.4931 % 12.54 C
312 19-06-2014 00:00:00 15.70791 C 75.5252 % 11.4 C
313 20-06-2014 00:00:00 15.64143 C 71.1667 % 10.44 C
314 21-06-2014 00:00:00 16.62118 C 65.5903 % 10.15 C
315 22-06-2014 00:00:00 16.62782 C 66.3415 % 10.33 C
316 23-06-2014 00:00:00 17.14792 C 65.1910 % 10.56 C
317 24-06-2014 00:00:00 16.64978 C 71.6277 % 11.5 C
318 25-06-2014 00:00:00 17.29096 C 56.5426 % 8.58 C
319 26-06-2014 00:00:00 16.18958 C 64.0764 % 9.4 C
320 27-06-2014 00:00:00 17.54167 C 67.2604 % 11.41 C
321 28-06-2014 00:00:00 16.28043 C 87.3950 % 14.18 C
322 29-06-2014 00:00:00 14.67192 C 93.3251 % 13.61 C
323 30-06-2014 00:00:00 16.05247 C 75.2167 % 11.67 C
324 01-07-2014 00:00:00 15.65035 C 70.2917 % 10.26 C
325 02-07-2014 00:00:00 16.86146 C 65.5313 % 10.37 C
Sensor: Nr:Datum:Temp:Feuchte:Taupunkt:
Aussen-T/F 326 03-07-2014 00:00:00 19.78889 C 59.6493 % 11.72 C
327 04-07-2014 00:00:00 20.36076 C 67.5382 % 14.16 C
328 05-07-2014 00:00:00 20.4 C 77.3439 % 16.3 C
329 06-07-2014 00:00:00 23.48509 C 69.7818 % 17.65 C
330 07-07-2014 00:00:00 19.86367 C 64.8202 % 13.05 C
331 08-07-2014 00:00:00 15.57633 C 89.8898 % 13.92 C
332 09-07-2014 00:00:00 12.97083 C 95.1667 % 12.22 C
333 10-07-2014 00:00:00 17.68292 C 90.2000 % 16.06 C
334 11-07-2014 00:00:00 18.42369 C 88.6466 % 16.51 C
335 12-07-2014 00:00:00 18.68363 C 88.1018 % 16.67 C
336 13-07-2014 00:00:00 19.06941 C 85.5922 % 16.6 C
337 14-07-2014 00:00:00 19.60206 C 79.5021 % 15.96 C
338 15-07-2014 00:00:00 21.3216 C 70.6901 % 15.78 C
339 16-07-2014 00:00:00 21.88732 C 74.8829 % 17.23 C
340 17-07-2014 00:00:00 23.77903 C 70.2742 % 18.04 C
341 18-07-2014 00:00:00 24.87935 C 65.5097 % 17.97 C
342 19-07-2014 00:00:00 27.76989 C 58.4086 % 18.86 C
343 20-07-2014 00:00:00 22.68715 C 80.6840 % 19.19 C
344 21-07-2014 00:00:00 20.29965 C 91.0660 % 18.79 C
345 22-07-2014 00:00:00 23.6856 C 82.0494 % 20.44 C
346 23-07-2014 00:00:00 23.11788 C 73.8869 % 18.2 C
347 24-07-2014 00:00:00 20.63922 C 73.5020 % 15.74 C
348 25-07-2014 00:00:00 21.8193 C 72.9825 % 16.76 C
349 26-07-2014 00:00:00 21.92 C 74.3097 % 17.14 C
350 27-07-2014 00:00:00 19.66694 C 83.9339 % 16.88 C
Sensor: Nr:Datum:Temp:Feuchte:Taupunkt:
Aussen-T/F 351 28-07-2014 00:00:00 22.3284 C 78.8580 % 18.48 C
352 29-07-2014 00:00:00 19.88194 C 95.8125 % 19.19 C
353 30-07-2014 00:00:00 19.93194 C 85.4097 % 17.41 C
354 31-07-2014 00:00:00 20.20645 C 77.0896 % 16.06 C
355 01-08-2014 00:00:00 20.08438 C 81.7153 % 16.86 C
356 02-08-2014 00:00:00 20.10868 C 84.8264 % 17.48 C
357 03-08-2014 00:00:00 21.3566 C 81.2743 % 18.02 C
358 04-08-2014 00:00:00 19.00347 C 86.5799 % 16.71 C
359 05-08-2014 00:00:00 18.77049 C 82.0208 % 15.64 C
360 06-08-2014 00:00:00 17.59618 C 84.4201 % 14.94 C
361 07-08-2014 00:00:00 18.9934 C 85.7986 % 16.56 C
362 08-08-2014 00:00:00 18.87604 C 89.5625 % 17.12 C
363 09-08-2014 00:00:00 20.16771 C 80.6076 % 16.73 C
364 10-08-2014 00:00:00 19.0125 C 90.0208 % 17.34 C
365 11-08-2014 00:00:00 17.0066 C 81.0000 % 13.72 C
366 12-08-2014 00:00:00 17.62431 C 72.1944 % 12.56 C
367 13-08-2014 00:00:00 15.97674 C 89.6528 % 14.28 C
368 14-08-2014 00:00:00 16.15426 C 84.3298 % 13.51 C
369 15-08-2014 00:00:00 14.48638 C 92.1720 % 13.23 C
370 16-08-2014 00:00:00 15.13439 C 89.3930 % 13.4 C
371 17-08-2014 00:00:00 16.14062 C 77.5243 % 12.21 C
372 18-08-2014 00:00:00 16.30417 C 74.5313 % 11.77 C
373 19-08-2014 00:00:00 13.79653 C 83.4410 % 11.04 C
374 20-08-2014 00:00:00 12.68681 C 83.0799 % 9.89 C
375 21-08-2014 00:00:00 12.84653 C 82.9965 % 10.03 C
Sensor: Nr:Datum:Temp:Feuchte:Taupunkt:
Aussen-T/F 376 22-08-2014 00:00:00 14.04062 C 78.5000 % 10.36 C
377 23-08-2014 00:00:00 14.26875 C 83.3194 % 11.48 C
378 24-08-2014 00:00:00 11.58993 C 93.2465 % 10.54 C
379 25-08-2014 00:00:00 13.23854 C 93.7743 % 12.26 C
380 26-08-2014 00:00:00 14.79479 C 96.8681 % 14.3 C
381 27-08-2014 00:00:00 15.38741 C 91.3237 % 13.98 C
382 28-08-2014 00:00:00 15.84062 C 93.0556 % 14.72 C
383 29-08-2014 00:00:00 18.05278 C 88.6979 % 16.16 C
384 30-08-2014 00:00:00 16.23299 C 90.9965 % 14.76 C
385 31-08-2014 00:00:00 14.70069 C 92.8125 % 13.55 C
386 01-09-2014 00:00:00 14.60556 C 91.4896 % 13.24 C
387 02-09-2014 00:00:00 14.6191 C 90.6771 % 13.11 C
388 03-09-2014 00:00:00 15.03299 C 89.9549 % 13.4 C
389 04-09-2014 00:00:00 16.74028 C 89.6910 % 15.04 C
390 05-09-2014 00:00:00 18.15903 C 91.3819 % 16.73 C
391 06-09-2014 00:00:00 17.4559 C 92.7604 % 16.27 C
392 07-09-2014 00:00:00 18.08889 C 88.1264 % 16.09 C
393 08-09-2014 00:00:00 17.83403 C 84.0833 % 15.11 C
394 09-09-2014 00:00:00 15.64965 C 81.4410 % 12.48 C
395 10-09-2014 00:00:00 14.27882 C 83.4132 % 11.51 C
396 11-09-2014 00:00:00 14.96111 C 83.0903 % 12.12 C
397 12-09-2014 00:00:00 14.12153 C 84.7257 % 11.59 C
398 13-09-2014 00:00:00 16.12118 C 88.7743 % 14.27 C
399 14-09-2014 00:00:00 16.65196 C 88.0641 % 14.67 C
400 15-09-2014 00:00:00 16.079 C 91.5516 % 14.7 C
Sensor: Nr:Datum:Temp:Feuchte:Taupunkt:
Aussen-T/F 401 16-09-2014 00:00:00 16.93264 C 90.1458 % 15.31 C
402 17-09-2014 00:00:00 16.05139 C 92.2118 % 14.79 C
403 18-09-2014 00:00:00 17.4875 C 95.6215 % 16.78 C
404 19-09-2014 00:00:00 18.38993 C 95.2708 % 17.62 C
405 20-09-2014 00:00:00 17.14931 C 96.4583 % 16.58 C
406 21-09-2014 00:00:00 15.46146 C 95.3090 % 14.71 C
407 22-09-2014 00:00:00 12.53194 C 86.3194 % 10.31 C
408 23-09-2014 00:00:00 9.91146 C 90.8993 % 8.5 C
409 24-09-2014 00:00:00 11.10451 C 89.8056 % 9.5 C
410 25-09-2014 00:00:00 13.67917 C 85.6806 % 11.33 C
411 26-09-2014 00:00:00 14.24896 C 88.9653 % 12.46 C
412 27-09-2014 00:00:00 15.59965 C 91.2743 % 14.18 C
413 28-09-2014 00:00:00 14.22743 C 95.0660 % 13.45 C
414 29-09-2014 00:00:00 15.41493 C 94.8472 % 14.59 C
415 30-09-2014 00:00:00 16.83438 C 93.1875 % 15.73 C
416 01-10-2014 00:00:00 15.87778 C 94.6389 % 15.02 C
417 02-10-2014 00:00:00 14.35799 C 95.7326 % 13.69 C
418 03-10-2014 00:00:00 13.73785 C 95.4063 % 13.02 C
419 04-10-2014 00:00:00 12.86979 C 93.2014 % 11.8 C
420 05-10-2014 00:00:00 12.94097 C 94.0799 % 12.01 C
421 06-10-2014 00:00:00 14.3 C 90.3750 % 12.75 C
422 07-10-2014 00:00:00 13.71806 C 92.2986 % 12.49 C
423 08-10-2014 00:00:00 13.3 C 97.6069 % 12.93 C
424 09-10-2014 00:00:00 15.17173 C 97.6859 % 14.81 C
425 10-10-2014 00:00:00 14.20902 C 96.4000 % 13.64 C
Sensor: Nr:Datum:Temp:Feuchte:Taupunkt:
Aussen-T/F 426 11-10-2014 00:00:00 14.77847 C 96.0347 % 14.15 C
427 12-10-2014 00:00:00 12.52744 C 95.6029 % 11.84 C
428 13-10-2014 00:00:00 14.72014 C 96.7569 % 14.21 C
429 14-10-2014 00:00:00 12.54495 C 95.1847 % 11.8 C
430 15-10-2014 00:00:00 11.65639 C 95.3910 % 10.94 C
431 16-10-2014 00:00:00 14.02682 C 94.9818 % 13.24 C
432 17-10-2014 00:00:00 14.05977 C 93.7854 % 13.07 C
433 18-10-2014 00:00:00 12.49887 C 97.7283 % 12.15 C
434 19-10-2014 00:00:00 15.09722 C 92.7188 % 13.93 C
435 20-10-2014 00:00:00 15.06015 C 83.9885 % 12.38 C
436 21-10-2014 00:00:00 11.78491 C 85.1649 % 9.38 C
437 22-10-2014 00:00:00 8.88438 C 85.2674 % 6.55 C
438 23-10-2014 00:00:00 10.3816 C 87.9444 % 8.47 C
439 24-10-2014 00:00:00 10.59097 C 90.2951 % 9.07 C
440 25-10-2014 00:00:00 11.53056 C 94.5417 % 10.69 C
441 26-10-2014 00:00:00 11.35625 C 95.5278 % 10.67 C
442 27-10-2014 00:00:00 9.22813 C 96.0903 % 8.64 C
443 28-10-2014 00:00:00 7.93681 C 88.3750 % 6.14 C
444 29-10-2014 00:00:00 9.50556 C 91.5347 % 8.2 C
445 30-10-2014 00:00:00 12.10625 C 96.8819 % 11.63 C
446 31-10-2014 00:00:00 12.05903 C 97.0694 % 11.61 C
447 01-11-2014 00:00:00 10.92674 C 98.2674 % 10.66 C
448 02-11-2014 00:00:00 11.24448 C 97.2776 % 10.83 C
449 03-11-2014 00:00:00 13.84028 C 90.1806 % 12.26 C
450 04-11-2014 00:00:00 11.22049 C 96.5521 % 10.69 C
Sensor: Nr:Datum:Temp:Feuchte:Taupunkt:
Aussen-T/F 451 05-11-2014 00:00:00 9.33229 C 95.2257 % 8.61 C
452 06-11-2014 00:00:00 6.59514 C 92.6250 % 5.49 C
453 07-11-2014 00:00:00 5.60208 C 94.8160 % 4.84 C
454 08-11-2014 00:00:00 8.8941 C 91.4340 % 7.58 C
455 09-11-2014 00:00:00 6.62257 C 96.8125 % 6.15 C
456 10-11-2014 00:00:00 8.76389 C 96.3715 % 8.22 C
457 11-11-2014 00:00:00 8.47553 C 95.0106 % 7.72 C
458 12-11-2014 00:00:00 9.50104 C 95.2604 % 8.78 C
459 13-11-2014 00:00:00 9.66736 C 96.6806 % 9.17 C
460 14-11-2014 00:00:00 10.60174 C 90.0313 % 9.04 C
461 15-11-2014 00:00:00 9.75938 C 94.5347 % 8.93 C
462 16-11-2014 00:00:00 8.75674 C 97.4468 % 8.38 C
463 17-11-2014 00:00:00 8.71146 C 97.5799 % 8.35 C
464 18-11-2014 00:00:00 8.62491 C 96.7473 % 8.14 C
465 19-11-2014 00:00:00 8.07465 C 95.9514 % 7.47 C
466 20-11-2014 00:00:00 6.45486 C 94.4826 % 5.63 C
467 21-11-2014 00:00:00 5.36458 C 95.0799 % 4.64 C
468 22-11-2014 00:00:00 5.83576 C 95.7569 % 5.21 C
469 23-11-2014 00:00:00 6.30104 C 96.9931 % 5.86 C
470 24-11-2014 00:00:00 7.36679 C 94.6236 % 6.56 C
471 25-11-2014 00:00:00 3.04781 C 97.7769 % 2.73 C
472 26-11-2014 00:00:00 5.29848 C 89.8182 % 3.77 C
473 27-11-2014 00:00:00 5.85447 C 92.9300 % 4.8 C
474 28-11-2014 00:00:00 5.42203 C 91.8771 % 4.21 C
475 29-11-2014 00:00:00 4.46596 C 89.4070 % 2.88 C
Sensor: Nr:Datum:Temp:Feuchte:Taupunkt:
Aussen-T/F 476 30-11-2014 00:00:00 3.88993 C 91.8229 % 2.69 C
477 01-12-2014 00:00:00 3.33299 C 91.1840 % 2.04 C
478 02-12-2014 00:00:00 1.63731 C 91.3192 % 0.38 C
479 03-12-2014 00:00:00 1.74095 C 94.0216 % 0.88 C
480 04-12-2014 00:00:00 2.32917 C 92.6806 % 1.27 C
481 05-12-2014 00:00:00 4.15278 C 92.7500 % 3.09 C
482 06-12-2014 00:00:00 4.51389 C 95.0174 % 3.79 C
483 07-12-2014 00:00:00 4.32049 C 92.1597 % 3.16 C
484 08-12-2014 00:00:00 3.10625 C 93.1458 % 2.11 C
485 09-12-2014 00:00:00 2.57569 C 96.3472 % 2.05 C
486 10-12-2014 00:00:00 4.42118 C 89.8993 % 2.91 C
487 11-12-2014 00:00:00 6.26736 C 89.8125 % 4.72 C
488 12-12-2014 00:00:00 9.07951 C 85.8507 % 6.84 C
489 13-12-2014 00:00:00 4.45625 C 96.4618 % 3.94 C
490 14-12-2014 00:00:00 2.59063 C 96.5868 % 2.1 C
491 15-12-2014 00:00:00 3.42986 C 93.8646 % 2.54 C
492 16-12-2014 00:00:00 6.12049 C 91.8542 % 4.9 C
493 17-12-2014 00:00:00 6.08021 C 92.4167 % 4.95 C
494 18-12-2014 00:00:00 11.91597 C 90.3021 % 10.38 C
495 19-12-2014 00:00:00 10.45243 C 86.8194 % 8.35 C
496 20-12-2014 00:00:00 5.90764 C 85.4618 % 3.66 C
497 21-12-2014 00:00:00 6.41042 C 88.0833 % 4.59 C
498 22-12-2014 00:00:00 8.375 C 87.5139 % 6.43 C
499 23-12-2014 00:00:00 10.04444 C 85.6222 % 7.75 C
500 24-12-2014 00:00:00 8.3214 C 86.1158 % 6.14 C
Sensor: Nr:Datum:Temp:Feuchte:Taupunkt:
Aussen-T/F 501 25-12-2014 00:00:00 5.2875 C 85.6027 % 3.08 C
502 26-12-2014 00:00:00 2.31469 C 97.1259 % 1.91 C
503 27-12-2014 00:00:00 1.46649 C 94.8796 % 0.74 C
504 28-12-2014 00:00:00 -3.09591 C 79.8636 % -6.07 C
505 29-12-2014 00:00:00 -0.46157 C 89.7388 % -1.94 C
506 30-12-2014 00:00:00 2.6765 C 92.5574 % 1.59 C
507 31-12-2014 00:00:00 2.46053 C 93.8487 % 1.57 C
508 01-01-2015 00:00:00 1.89397 C 96.4741 % 1.39 C
509 02-01-2015 00:00:00 3.6411 C 89.1575 % 2.03 C
510 03-01-2015 00:00:00 1.94125 C 94.7000 % 1.18 C
511 04-01-2015 00:00:00 2.94172 C 93.6503 % 2.02 C
512 05-01-2015 00:00:00 -0.02447 C 95.0904 % -0.71 C
513 06-01-2015 00:00:00 0.48846 C 92.6923 % -0.55 C
514 07-01-2015 00:00:00 2.52604 C 92.4113 % 1.42 C
515 08-01-2015 00:00:00 6.62222 C 92.6632 % 5.52 C
516 09-01-2015 00:00:00 9.27879 C 85.8977 % 7.04 C
517 10-01-2015 00:00:00 13.56872 C 83.0051 % 10.74 C
518 11-01-2015 00:00:00 5.45068 C 76.2432 % 1.61 C
519 12-01-2015 00:00:00 6.91962 C 83.3811 % 4.3 C
520 13-01-2015 00:00:00 10.09231 C 75.4163 % 5.95 C
521 14-01-2015 00:00:00 5.9911 C 84.6525 % 3.61 C
522 15-01-2015 00:00:00 10.14352 C 76.1574 % 6.14 C
523 16-01-2015 00:00:00 6.66424 C 88.4201 % 4.89 C
524 17-01-2015 00:00:00 3.35174 C 91.5660 % 2.11 C
525 18-01-2015 00:00:00 1.91111 C 84.4965 % -0.42 C
Sensor: Nr:Datum:Temp:Feuchte:Taupunkt:
Aussen-T/F 526 19-01-2015 00:00:00 0.89028 C 89.3889 % -0.65 C
527 20-01-2015 00:00:00 0.86285 C 90.8576 % -0.46 C
528 21-01-2015 00:00:00 -0.0414 C 88.7123 % -1.68 C
529 22-01-2015 00:00:00 1.45625 C 84.8438 % -0.81 C
530 23-01-2015 00:00:00 1.33299 C 89.6736 % -0.17 C
531 24-01-2015 00:00:00 1.04056 C 91.7189 % -0.15 C
532 25-01-2015 00:00:00 2.19444 C 94.2396 % 1.37 C
533 26-01-2015 00:00:00 3.05694 C 95.0069 % 2.34 C
534 27-01-2015 00:00:00 3.85208 C 93.6806 % 2.93 C
535 28-01-2015 00:00:00 4.1184 C 90.7604 % 2.75 C
536 29-01-2015 00:00:00 3.03715 C 88.2431 % 1.29 C
537 30-01-2015 00:00:00 1.92569 C 90.3715 % 0.52 C
538 31-01-2015 00:00:00 2.07143 C 87.5437 % 0.23 C
539 01-02-2015 00:00:00 2.04274 C 93.0565 % 1.04 C
540 02-02-2015 00:00:00 2.35794 C 89.0635 % 0.75 C
541 03-02-2015 00:00:00 0.88769 C 90.6462 % -0.46 C
542 04-02-2015 00:00:00 0.04848 C 87.0379 % -1.84 C
543 05-02-2015 00:00:00 -1.86778 C 83.7333 % -4.25 C
544 06-02-2015 00:00:00 0.42153 C 69.7431 % -4.45 C
545 07-02-2015 00:00:00 -0.6316 C 80.7569 % -3.52 C
546 08-02-2015 00:00:00 3.19444 C 81.6701 % 0.37 C
547 09-02-2015 00:00:00 4.06597 C 90.9549 % 2.73 C
548 10-02-2015 00:00:00 4.96528 C 91.7188 % 3.73 C
549 11-02-2015 00:00:00 3.82917 C 87.1771 % 1.9 C
550 12-02-2015 00:00:00 2.75556 C 89.3854 % 1.19 C
Sensor: Nr:Datum:Temp:Feuchte:Taupunkt:
Aussen-T/F 551 13-02-2015 00:00:00 2.27396 C 89.2326 % 0.69 C
552 14-02-2015 00:00:00 3.73438 C 86.5382 % 1.7 C
553 15-02-2015 00:00:00 1.72778 C 89.3542 % 0.17 C
554 16-02-2015 00:00:00 1.82744 C 88.4874 % 0.13 C
555 17-02-2015 00:00:00 3.31146 C 88.3646 % 1.58 C
556 18-02-2015 00:00:00 4.09479 C 89.1493 % 2.47 C
557 19-02-2015 00:00:00 0.94861 C 88.1007 % -0.79 C
558 20-02-2015 00:00:00 6.96389 C 77.7326 % 3.35 C
559 21-02-2015 00:00:00 5.27535 C 85.5972 % 3.06 C
560 22-02-2015 00:00:00 3.72083 C 82.6285 % 1.05 C
561 23-02-2015 00:00:00 3.46944 C 89.0000 % 1.83 C
562 24-02-2015 00:00:00 4.88611 C 84.9757 % 2.58 C
563 25-02-2015 00:00:00 4.28403 C 89.1215 % 2.65 C
564 26-02-2015 00:00:00 6.06354 C 89.7708 % 4.51 C
565 27-02-2015 00:00:00 5.01736 C 91.6632 % 3.78 C
566 28-02-2015 00:00:00 2.37187 C 85.8854 % 0.26 C
567 01-03-2015 00:00:00 7.71493 C 80.8125 % 4.63 C
568 02-03-2015 00:00:00 6.14653 C 79.5556 % 2.88 C
569 03-03-2015 00:00:00 5.52812 C 78.2778 % 2.05 C
570 04-03-2015 00:00:00 4.51771 C 82.8576 % 1.86 C
571 05-03-2015 00:00:00 5.08681 C 83.0556 % 2.45 C
572 06-03-2015 00:00:00 4.14931 C 84.0660 % 1.71 C
573 07-03-2015 00:00:00 4.96007 C 81.3993 % 2.05 C
574 08-03-2015 00:00:00 6.05625 C 83.0174 % 3.4 C
575 09-03-2015 00:00:00 7.81354 C 84.5938 % 5.38 C
Sensor: Nr:Datum:Temp:Feuchte:Taupunkt:
Aussen-T/F 576 10-03-2015 00:00:00 5.56319 C 96.8542 % 5.1 C
577 11-03-2015 00:00:00 4.39549 C 87.3090 % 2.48 C
578 12-03-2015 00:00:00 3.92222 C 82.5382 % 1.23 C
579 13-03-2015 00:00:00 4.14514 C 76.4688 % 0.39 C
580 14-03-2015 00:00:00 4.55451 C 82.5729 % 1.85 C
581 15-03-2015 00:00:00 4.61042 C 89.4132 % 3.02 C
582 16-03-2015 00:00:00 4.68368 C 86.6736 % 2.66 C
583 17-03-2015 00:00:00 7.26632 C 81.9722 % 4.4 C
584 18-03-2015 00:00:00 9.08924 C 80.6424 % 5.94 C
585 19-03-2015 00:00:00 7.62431 C 91.9132 % 6.4 C
586 20-03-2015 00:00:00 8.07465 C 82.3889 % 5.26 C
587 21-03-2015 00:00:00 5.69201 C 90.0000 % 4.18 C
588 22-03-2015 00:00:00 5.19792 C 82.4965 % 2.47 C
589 23-03-2015 00:00:00 3.85521 C 84.2118 % 1.44 C
590 24-03-2015 00:00:00 6.94167 C 81.1181 % 3.93 C
591 25-03-2015 00:00:00 7.68056 C 84.0729 % 5.17 C
592 26-03-2015 00:00:00 7.17257 C 77.3333 % 3.48 C
593 27-03-2015 00:00:00 7.64965 C 74.8472 % 3.48 C
594 28-03-2015 00:00:00 8.51667 C 79.0243 % 5.09 C
595 29-03-2015 00:00:00 11.63659 C 83.7029 % 8.98 C
596 30-03-2015 00:00:00 8.21597 C 71.2222 % 3.32 C
597 31-03-2015 00:00:00 10.06181 C 74.1771 % 5.68 C
598 01-04-2015 00:00:00 6.38924 C 70.3542 % 1.4 C
599 02-04-2015 00:00:00 6.45868 C 73.6250 % 2.1 C
600 03-04-2015 00:00:00 5.87951 C 71.3819 % 1.11 C
Sensor: Nr:Datum:Temp:Feuchte:Taupunkt:
Aussen-T/F 601 04-04-2015 00:00:00 6.24896 C 76.7882 % 2.49 C
602 05-04-2015 00:00:00 5.21354 C 69.6042 % 0.12 C
603 06-04-2015 00:00:00 5.33542 C 76.9201 % 1.62 C
604 07-04-2015 00:00:00 5.98646 C 76.3785 % 2.16 C
605 08-04-2015 00:00:00 8.43776 C 77.5594 % 4.75 C
606 09-04-2015 00:00:00 11.19653 C 77.2118 % 7.36 C
607 10-04-2015 00:00:00 13.22708 C 68.0278 % 7.46 C
608 11-04-2015 00:00:00 12.37118 C 70.6736 % 7.2 C
609 12-04-2015 00:00:00 11.34444 C 70.3090 % 6.14 C
610 13-04-2015 00:00:00 11.50104 C 69.8576 % 6.2 C
611 14-04-2015 00:00:00 13.37778 C 67.0347 % 7.39 C
612 15-04-2015 00:00:00 16.43472 C 63.5799 % 9.51 C
613 16-04-2015 00:00:00 15.04757 C 69.6493 % 9.55 C
614 17-04-2015 00:00:00 11.41736 C 67.7951 % 5.69 C
615 18-04-2015 00:00:00 8.60486 C 64.9931 % 2.41 C
616 19-04-2015 00:00:00 9.50903 C 62.7708 % 2.78 C
617 20-04-2015 00:00:00 12.20312 C 60.9549 % 4.9 C
618 21-04-2015 00:00:00 13.69549 C 60.5278 % 6.21 C
619 22-04-2015 00:00:00 10.77465 C 69.4826 % 5.42 C
620 23-04-2015 00:00:00 10.84062 C 70.1806 % 5.63 C
621 24-04-2015 00:00:00 13.43403 C 62.6701 % 6.46 C
622 25-04-2015 00:00:00 12.95486 C 81.1250 % 9.8 C
623 26-04-2015 00:00:00 15.34444 C 79.1736 % 11.76 C
624 27-04-2015 00:00:00 10.42014 C 94.5868 % 9.59 C
625 28-04-2015 00:00:00 9.15382 C 73.6910 % 4.71 C
Sensor: Nr:Datum:Temp:Feuchte:Taupunkt:
Aussen-T/F 626 29-04-2015 00:00:00 8.3059 C 73.2951 % 3.82 C
627 30-04-2015 00:00:00 9.85764 C 80.8819 % 6.73 C
628 01-05-2015 00:00:00 8.17979 C 82.7700 % 5.43 C
629 02-05-2015 00:00:00 9.88958 C 78.1007 % 6.26 C
630 03-05-2015 00:00:00 13.80469 C 89.9856 % 12.19 C
631 04-05-2015 00:00:00 16.61875 C 81.1319 % 13.37 C
632 05-05-2015 00:00:00 18.45035 C 74.4514 % 13.83 C
633 06-05-2015 00:00:00 13.3566 C 69.4306 % 7.89 C
634 07-05-2015 00:00:00 13.35764 C 65.8646 % 7.12 C
635 08-05-2015 00:00:00 14.46632 C 68.7951 % 8.81 C
636 09-05-2015 00:00:00 15.2441 C 75.9410 % 11.03 C
637 10-05-2015 00:00:00 14.78229 C 75.1944 % 10.44 C
638 11-05-2015 00:00:00 17.12812 C 73.8611 % 12.43 C
639 12-05-2015 00:00:00 18.0309 C 74.6181 % 13.46 C
640 13-05-2015 00:00:00 14.45208 C 67.5590 % 8.53 C
641 14-05-2015 00:00:00 14.14351 C 72.7298 % 9.33 C
642 15-05-2015 00:00:00 15.02882 C 77.6215 % 11.15 C
643 16-05-2015 00:00:00 12.01528 C 78.7569 % 8.45 C
644 17-05-2015 00:00:00 14.18924 C 70.3750 % 8.88 C
645 18-05-2015 00:00:00 15.27535 C 65.6250 % 8.88 C
646 19-05-2015 00:00:00 13.64941 C 60.6403 % 6.19 C
647 20-05-2015 00:00:00 11.71144 C 70.5166 % 6.54 C
648 21-05-2015 00:00:00 11.60764 C 69.7118 % 6.27 C
649 22-05-2015 00:00:00 15.74722 C 61.0868 % 8.27 C
650 23-05-2015 00:00:00 15.85278 C 71.0625 % 10.62 C
Sensor: Nr:Datum:Temp:Feuchte:Taupunkt:
Aussen-T/F 651 24-05-2015 00:00:00 17.02887 C 75.7852 % 12.73 C
652 25-05-2015 00:00:00 13.82968 C 88.0452 % 11.89 C
653 26-05-2015 00:00:00 11.87604 C 75.6736 % 7.72 C
654 27-05-2015 00:00:00 11.63958 C 70.3194 % 6.43 C
655 28-05-2015 00:00:00 14.21944 C 69.5104 % 8.73 C
656 29-05-2015 00:00:00 13.27367 C 76.0712 % 9.15 C
657 30-05-2015 00:00:00 12.66319 C 71.2188 % 7.59 C
658 31-05-2015 00:00:00 14.50903 C 73.4653 % 9.83 C
659 01-06-2015 00:00:00 14.86667 C 79.3472 % 11.33 C
660 02-06-2015 00:00:00 16.57639 C 73.3056 % 11.78 C
661 03-06-2015 00:00:00 17.74965 C 70.8646 % 12.4 C
662 04-06-2015 00:00:00 18.54896 C 65.3993 % 11.94 C
663 05-06-2015 00:00:00 22.1191 C 67.8681 % 15.91 C
664 06-06-2015 00:00:00 19.94028 C 80.0208 % 16.39 C
665 07-06-2015 00:00:00 18.04306 C 59.8576 % 10.13 C
666 08-06-2015 00:00:00 16.17222 C 63.8056 % 9.32 C
667 09-06-2015 00:00:00 14.94792 C 62.4688 % 7.85 C
668 10-06-2015 00:00:00 17.10208 C 66.1146 % 10.73 C
669 11-06-2015 00:00:00 19.95895 C 61.7825 % 12.41 C
670 12-06-2015 00:00:00 19.48699 C 78.0855 % 15.57 C
671 13-06-2015 00:00:00 18.63958 C 85.4028 % 16.14 C
672 14-06-2015 00:00:00 19.07708 C 68.7674 % 13.21 C
673 15-06-2015 00:00:00 17.59271 C 74.7535 % 13.06 C
674 16-06-2015 00:00:00 15.68924 C 63.0868 % 8.69 C
675 17-06-2015 00:00:00 15.5816 C 65.6250 % 9.18 C
Sensor: Nr:Datum:Temp:Feuchte:Taupunkt:
Aussen-T/F 676 18-06-2015 00:00:00 17.15625 C 75.1736 % 12.73 C
677 19-06-2015 00:00:00 12.7559 C 82.5104 % 9.86 C
678 20-06-2015 00:00:00 13.05547 C 82.0000 % 10.06 C
679 21-06-2015 00:00:00 15.43396 C 84.8358 % 12.9 C
680 22-06-2015 00:00:00 13.19855 C 87.9273 % 11.24 C
681 23-06-2015 00:00:00 11.71206 C 92.2057 % 10.49 C
682 24-06-2015 00:00:00 14.96215 C 81.0417 % 11.74 C
683 25-06-2015 00:00:00 17.94306 C 75.7118 % 13.6 C
684 26-06-2015 00:00:00 19.40139 C 78.2465 % 15.52 C
685 27-06-2015 00:00:00 20.26461 C 74.9877 % 15.69 C
686 28-06-2015 00:00:00 18.39741 C 72.8405 % 13.44 C
687 29-06-2015 00:00:00 23.63875 C 61.7438 % 15.87 C
688 30-06-2015 00:00:00 21.94847 C 63.2710 % 14.65 C
689 01-07-2015 00:00:00 24.13993 C 63.3022 % 16.73 C
690 02-07-2015 00:00:00 26.83474 C 64.8246 % 19.66 C
691 03-07-2015 00:00:00 28.2408 C 65.4400 % 21.14 C
692 04-07-2015 00:00:00 27.77951 C 67.8229 % 21.29 C
693 05-07-2015 00:00:00 26.75417 C 64.4028 % 19.47 C
694 06-07-2015 00:00:00 23.89674 C 54.1630 % 14.07 C
695 07-07-2015 00:00:00 23.4251 C 64.1833 % 16.27 C
696 08-07-2015 00:00:00 17.62465 C 71.6944 % 12.45 C
697 09-07-2015 00:00:00 16.50669 C 68.3134 % 10.65 C
698 10-07-2015 00:00:00 17.02947 C 57.6175 % 8.61 C
699 11-07-2015 00:00:00 21.24132 C 54.9340 % 11.83 C
700 12-07-2015 00:00:00 19.0157 C 71.3264 % 13.71 C
Sensor: Nr:Datum:Temp:Feuchte:Taupunkt:
Aussen-T/F 701 13-07-2015 00:00:00 17.93777 C 85.0638 % 15.39 C
702 14-07-2015 00:00:00 21.06476 C 74.5551 % 16.37 C
703 15-07-2015 00:00:00 21.59368 C 75.8000 % 17.14 C
704 16-07-2015 00:00:00 24.00382 C 71.6667 % 18.57 C
705 17-07-2015 00:00:00 28.34301 C 50.2206 % 16.99 C
706 18-07-2015 00:00:00 23.63602 C 62.5441 % 16.06 C
707 19-07-2015 00:00:00 21.84756 C 77.9451 % 17.83 C
708 20-07-2015 00:00:00 22.02667 C 88.1833 % 19.98 C
709 21-07-2015 00:00:00 26.21048 C 69.2476 % 20.13 C
710 22-07-2015 00:00:00 23.3275 C 74.4857 % 18.53 C
711 23-07-2015 00:00:00 20.60312 C 64.9514 % 13.78 C
712 24-07-2015 00:00:00 21.45543 C 69.6180 % 15.67 C
713 25-07-2015 00:00:00 17.38849 C 77.9048 % 13.5 C
714 26-07-2015 00:00:00 15.82244 C 71.9961 % 10.79 C
715 27-07-2015 00:00:00 17.63472 C 81.2604 % 14.39 C
716 28-07-2015 00:00:00 17.16294 C 63.9825 % 10.3 C
717 29-07-2015 00:00:00 17.78846 C 55.9808 % 8.9 C
718 30-07-2015 00:00:00 14.2708 C 74.1720 % 9.74 C
719 31-07-2015 00:00:00 16.9314 C 65.0744 % 10.33 C
720 01-08-2015 00:00:00 19.24097 C 59.1319 % 11.07 C
721 02-08-2015 00:00:00 20.84722 C 61.6979 % 13.23 C
722 03-08-2015 00:00:00 23.19217 C 57.6157 % 14.37 C
723 04-08-2015 00:00:00 19.03299 C 81.7396 % 15.84 C
724 05-08-2015 00:00:00 19.79201 C 76.1424 % 15.47 C
725 06-08-2015 00:00:00 24 C 66.2153 % 17.31 C
Sensor: Nr:Datum:Temp:Feuchte:Taupunkt:
Aussen-T/F 726 07-08-2015 00:00:00 26.94306 C 61.3715 % 18.88 C
727 08-08-2015 00:00:00 22.82014 C 79.2431 % 19.03 C
728 09-08-2015 00:00:00 21.98785 C 77.7708 % 17.93 C
729 10-08-2015 00:00:00 19.76944 C 83.2465 % 16.85 C
730 11-08-2015 00:00:00 21.91979 C 74.4583 % 17.17 C
731 12-08-2015 00:00:00 23.09896 C 77.4583 % 18.94 C
732 13-08-2015 00:00:00 25.32292 C 70.7535 % 19.63 C
733 14-08-2015 00:00:00 24.17396 C 69.3611 % 18.21 C
734 15-08-2015 00:00:00 20.86319 C 72.4201 % 15.72 C
735 16-08-2015 00:00:00 15.85799 C 89.8924 % 14.2 C
736 17-08-2015 00:00:00 14.78889 C 90.7396 % 13.29 C
737 18-08-2015 00:00:00 15.90625 C 82.9757 % 13.02 C
738 19-08-2015 00:00:00 15.71493 C 78.1458 % 11.92 C
739 20-08-2015 00:00:00 18.10382 C 74.0625 % 13.41 C
740 21-08-2015 00:00:00 18.85764 C 70.1910 % 13.31 C
741 22-08-2015 00:00:00 19.10729 C 64.2708 % 12.21 C
742 23-08-2015 00:00:00 19.89722 C 63.7431 % 12.83 C
743 24-08-2015 00:00:00 19.22187 C 83.3750 % 16.34 C
744 25-08-2015 00:00:00 17.40729 C 68.3472 % 11.52 C
745 26-08-2015 00:00:00 20.71458 C 65.1667 % 13.94 C
746 27-08-2015 00:00:00 18.60486 C 83.2986 % 15.72 C
747 28-08-2015 00:00:00 16.57292 C 89.2813 % 14.8 C
748 29-08-2015 00:00:00 19.31181 C 88.3993 % 17.35 C
749 30-08-2015 00:00:00 23.12396 C 82.7396 % 20.03 C
750 31-08-2015 00:00:00 24.2934 C 69.7604 % 18.42 C
Sensor: Nr:Datum:Temp:Feuchte:Taupunkt:
Aussen-T/F 751 01-09-2015 00:00:00 17.4059 C 90.9826 % 15.92 C
752 02-09-2015 00:00:00 15.13229 C 84.9479 % 12.62 C
753 03-09-2015 00:00:00 13.95937 C 84.7326 % 11.43 C
754 04-09-2015 00:00:00 13.54792 C 79.5833 % 10.09 C
755 05-09-2015 00:00:00 13.21701 C 84.4479 % 10.65 C
756 06-09-2015 00:00:00 13.11632 C 74.0868 % 8.61 C
757 07-09-2015 00:00:00 13.56493 C 87.0000 % 11.44 C
758 08-09-2015 00:00:00 15.09236 C 84.9271 % 12.58 C
759 09-09-2015 00:00:00 15.60139 C 76.2118 % 11.43 C
760 10-09-2015 00:00:00 13.23854 C 76.5972 % 9.22 C
761 11-09-2015 00:00:00 13.19792 C 79.2847 % 9.69 C
762 12-09-2015 00:00:00 15.35312 C 83.7361 % 12.62 C
763 13-09-2015 00:00:00 17.07153 C 92.6042 % 15.86 C
764 14-09-2015 00:00:00 15.52639 C 91.7431 % 14.19 C
765 15-09-2015 00:00:00 12.94931 C 87.0938 % 10.86 C
766 16-09-2015 00:00:00 15.01667 C 93.7153 % 14.01 C
767 17-09-2015 00:00:00 14.6566 C 91.2049 % 13.24 C
768 18-09-2015 00:00:00 14.53542 C 85.5278 % 12.14 C
769 19-09-2015 00:00:00 14.32292 C 87.2118 % 12.23 C
770 20-09-2015 00:00:00 13.77188 C 84.7743 % 11.26 C
771 21-09-2015 00:00:00 12.22847 C 90.1354 % 10.66 C
772 22-09-2015 00:00:00 13.06701 C 91.6285 % 11.74 C
773 23-09-2015 00:00:00 11.92535 C 93.3056 % 10.88 C
774 24-09-2015 00:00:00 13.09618 C 90.9340 % 11.65 C
775 25-09-2015 00:00:00 13.95278 C 87.2257 % 11.86 C
Sensor: Nr:Datum:Temp:Feuchte:Taupunkt:
Aussen-T/F 776 26-09-2015 00:00:00 12.73889 C 89.2049 % 11.01 C
777 27-09-2015 00:00:00 11.29236 C 83.7500 % 8.65 C
778 28-09-2015 00:00:00 10.50729 C 82.5556 % 7.67 C
779 29-09-2015 00:00:00 10.96979 C 81.2257 % 7.88 C
780 30-09-2015 00:00:00 10.73368 C 77.8993 % 7.04 C
781 01-10-2015 00:00:00 9.88646 C 74.8576 % 5.64 C
782 02-10-2015 00:00:00 9.21528 C 85.2083 % 6.86 C
783 03-10-2015 00:00:00 11.40139 C 85.8993 % 9.13 C
784 04-10-2015 00:00:00 12.61562 C 91.5000 % 11.27 C
785 05-10-2015 00:00:00 11.96597 C 92.3958 % 10.77 C
786 06-10-2015 00:00:00 15.93854 C 95.3576 % 15.2 C
787 07-10-2015 00:00:00 14.99028 C 89.4375 % 13.27 C
788 08-10-2015 00:00:00 13.45521 C 86.9167 % 11.32 C
789 09-10-2015 00:00:00 12.29618 C 93.3993 % 11.26 C
790 10-10-2015 00:00:00 12.19271 C 87.9236 % 10.25 C
791 11-10-2015 00:00:00 8.37431 C 76.8542 % 4.56 C
792 12-10-2015 00:00:00 5.28229 C 82.6007 % 2.57 C
793 13-10-2015 00:00:00 4.33542 C 90.2049 % 2.88 C
794 14-10-2015 00:00:00 3.63333 C 95.0139 % 2.91 C
795 15-10-2015 00:00:00 4.25694 C 95.2500 % 3.57 C
796 16-10-2015 00:00:00 6.52431 C 92.4236 % 5.39 C
797 17-10-2015 00:00:00 6.99375 C 89.5000 % 5.39 C
798 18-10-2015 00:00:00 7.25556 C 90.9896 % 5.89 C
799 19-10-2015 00:00:00 8.22361 C 91.6285 % 6.94 C
800 20-10-2015 00:00:00 9.33576 C 93.8785 % 8.4 C
Sensor: Nr:Datum:Temp:Feuchte:Taupunkt:
Aussen-T/F 801 21-10-2015 00:00:00 9.83611 C 91.5903 % 8.53 C
802 22-10-2015 00:00:00 11.18472 C 88.5000 % 9.36 C
803 23-10-2015 00:00:00 10.26979 C 95.0417 % 9.51 C
804 24-10-2015 00:00:00 11.03438 C 89.7465 % 9.42 C
805 25-10-2015 00:00:00 11.68229 C 92.6528 % 10.53 C
806 26-10-2015 00:00:00 9.55312 C 94.6736 % 8.74 C
807 27-10-2015 00:00:00 8.10278 C 94.6701 % 7.3 C
808 28-10-2015 00:00:00 9.54444 C 91.5382 % 8.24 C
809 29-10-2015 00:00:00 10.48299 C 92.5799 % 9.33 C
810 30-10-2015 00:00:00 7.79965 C 95.7917 % 7.17 C
811 31-10-2015 00:00:00 7.27118 C 93.9479 % 6.36 C
812 01-11-2015 00:00:00 6.57708 C 96.2118 % 6.02 C
813 02-11-2015 00:00:00 4.67431 C 96.7049 % 4.2 C
814 03-11-2015 00:00:00 4.99896 C 95.2813 % 4.31 C
815 04-11-2015 00:00:00 7.79549 C 94.1146 % 6.91 C
816 05-11-2015 00:00:00 10.38299 C 95.2569 % 9.66 C
817 06-11-2015 00:00:00 13.31493 C 92.8854 % 12.19 C
818 07-11-2015 00:00:00 16.40417 C 94.1493 % 15.46 C
819 08-11-2015 00:00:00 12.97292 C 95.2118 % 12.23 C
820 09-11-2015 00:00:00 14.80846 C 83.2353 % 11.99 C
821 10-11-2015 00:00:00 13.07951 C 84.1493 % 10.47 C
822 11-11-2015 00:00:00 11.7066 C 84.5625 % 9.2 C
823 12-11-2015 00:00:00 11.71562 C 87.6354 % 9.73 C
824 13-11-2015 00:00:00 10.51875 C 88.3993 % 8.68 C
825 14-11-2015 00:00:00 8.91806 C 83.4722 % 6.27 C
Sensor: Nr:Datum:Temp:Feuchte:Taupunkt:
Aussen-T/F 826 15-11-2015 00:00:00 12.53854 C 84.1944 % 9.95 C
827 16-11-2015 00:00:00 11.63438 C 83.7708 % 8.99 C
828 17-11-2015 00:00:00 14.03889 C 89.3438 % 12.31 C
829 18-11-2015 00:00:00 13.87604 C 73.4063 % 9.21 C
830 19-11-2015 00:00:00 12.23611 C 85.8750 % 9.94 C
831 20-11-2015 00:00:00 7.64444 C 94.6667 % 6.84 C
832 21-11-2015 00:00:00 3.88021 C 91.2500 % 2.59 C
833 22-11-2015 00:00:00 2.85139 C 91.2396 % 1.57 C
834 23-11-2015 00:00:00 2.48125 C 91.7917 % 1.29 C
835 24-11-2015 00:00:00 1.88785 C 89.9931 % 0.42 C
836 25-11-2015 00:00:00 4.63646 C 91.6528 % 3.4 C
837 26-11-2015 00:00:00 4.92257 C 92.5174 % 3.81 C
838 27-11-2015 00:00:00 2.23299 C 94.7951 % 1.49 C
839 28-11-2015 00:00:00 4.42821 C 85.6357 % 2.24 C
840 29-11-2015 00:00:00 9.10451 C 86.0660 % 6.9 C
841 30-11-2015 00:00:00 9.89514 C 90.3056 % 8.38 C
842 01-12-2015 00:00:00 11.24618 C 92.4410 % 10.07 C
843 02-12-2015 00:00:00 9.85729 C 87.9375 % 7.96 C
844 03-12-2015 00:00:00 7.55664 C 86.3252 % 5.42 C
845 04-12-2015 00:00:00 6.93333 C 91.5694 % 5.66 C
846 05-12-2015 00:00:00 6.05903 C 89.7500 % 4.51 C
847 06-12-2015 00:00:00 8.44861 C 86.8160 % 6.38 C
848 07-12-2015 00:00:00 8.35868 C 92.6840 % 7.24 C
849 08-12-2015 00:00:00 4.51007 C 97.2292 % 4.11 C
850 09-12-2015 00:00:00 6.58229 C 94.7396 % 5.8 C
Sensor: Nr:Datum:Temp:Feuchte:Taupunkt:
Aussen-T/F 851 10-12-2015 00:00:00 3.22882 C 93.5590 % 2.29 C
852 11-12-2015 00:00:00 4.75451 C 92.5069 % 3.65 C
853 12-12-2015 00:00:00 8.05903 C 95.3681 % 7.36 C
854 13-12-2015 00:00:00 8.6316 C 90.9167 % 7.23 C
855 14-12-2015 00:00:00 5.9875 C 96.5243 % 5.48 C
856 15-12-2015 00:00:00 5.6816 C 96.2813 % 5.14 C
857 16-12-2015 00:00:00 9.66146 C 97.4514 % 9.28 C
858 17-12-2015 00:00:00 12.51647 C 94.1098 % 11.6 C
859 18-12-2015 00:00:00 11.17396 C 93.8472 % 10.22 C
860 19-12-2015 00:00:00 11.26667 C 91.7708 % 9.98 C
861 20-12-2015 00:00:00 7.84687 C 96.5278 % 7.33 C
862 21-12-2015 00:00:00 10.07014 C 88.0938 % 8.19 C
863 22-12-2015 00:00:00 11.62281 C 82.5175 % 8.75 C
864 23-12-2015 00:00:00 10.964 C 81.0000 % 7.83 C
865 24-12-2015 00:00:00 11.76867 C 85.1506 % 9.36 C
866 25-12-2015 00:00:00 11.08646 C 87.9063 % 9.16 C
867 26-12-2015 00:00:00 10.37257 C 87.6354 % 8.41 C
868 27-12-2015 00:00:00 7.5375 C 92.7847 % 6.45 C
869 28-12-2015 00:00:00 2.6941 C 97.0833 % 2.28 C
870 29-12-2015 00:00:00 3.10521 C 97.6493 % 2.77 C
871 30-12-2015 00:00:00 4.88299 C 93.8507 % 3.98 C
872 31-12-2015 00:00:00 5.0934 C 93.0000 % 4.06 C
873 01-01-2016 00:00:00 4.17222 C 95.5521 % 3.53 C
874 02-01-2016 00:00:00 4.50451 C 93.6563 % 3.57 C
875 03-01-2016 00:00:00 5.64826 C 92.3889 % 4.51 C
Sensor: Nr:Datum:Temp:Feuchte:Taupunkt:
Aussen-T/F 876 04-01-2016 00:00:00 5.3184 C 94.4861 % 4.51 C
877 05-01-2016 00:00:00 6.45694 C 91.6285 % 5.2 C
878 06-01-2016 00:00:00 5.95903 C 94.3542 % 5.12 C
879 07-01-2016 00:00:00 5.04028 C 94.1042 % 4.17 C
880 08-01-2016 00:00:00 3.28646 C 90.7396 % 1.92 C
881 09-01-2016 00:00:00 1.12292 C 97.2361 % 0.73 C
882 10-01-2016 00:00:00 6.27708 C 91.8785 % 5.06 C
883 11-01-2016 00:00:00 5.25729 C 94.6875 % 4.48 C
884 12-01-2016 00:00:00 5.58229 C 88.8229 % 3.89 C
885 13-01-2016 00:00:00 4.93333 C 89.9931 % 3.43 C
886 14-01-2016 00:00:00 3.31701 C 89.1944 % 1.71 C
887 15-01-2016 00:00:00 2.89062 C 90.6806 % 1.52 C
888 16-01-2016 00:00:00 2.0875 C 90.9653 % 0.77 C
889 17-01-2016 00:00:00 0.26424 C 83.9583 % -2.12 C
890 18-01-2016 00:00:00 -4.85799 C 90.6840 % -6.14 C
891 19-01-2016 00:00:00 -5.27882 C 89.7257 % -6.7 C
892 20-01-2016 00:00:00 -1.61806 C 91.4618 % -2.82 C
893 21-01-2016 00:00:00 0.6684 C 92.9618 % -0.34 C
894 22-01-2016 00:00:00 -2.10729 C 91.9201 % -3.24 C
895 23-01-2016 00:00:00 4.1559 C 94.7465 % 3.39 C
896 24-01-2016 00:00:00 5.37396 C 93.7882 % 4.46 C
897 25-01-2016 00:00:00 7.51076 C 93.2813 % 6.5 C
898 26-01-2016 00:00:00 9.35729 C 85.4410 % 7.04 C
899 27-01-2016 00:00:00 11.44792 C 70.5313 % 6.29 C
900 28-01-2016 00:00:00 7.3625 C 85.9931 % 5.18 C
Sensor: Nr:Datum:Temp:Feuchte:Taupunkt:
Aussen-T/F 901 29-01-2016 00:00:00 5.64583 C 86.0833 % 3.51 C
902 30-01-2016 00:00:00 7.42914 C 86.8885 % 5.39 C
903 31-01-2016 00:00:00 6.31944 C 89.3819 % 4.7 C
904 01-02-2016 00:00:00 11.92326 C 84.3993 % 9.38 C
905 02-02-2016 00:00:00 10.40035 C 86.6354 % 8.27 C
906 03-02-2016 00:00:00 5.14306 C 85.1354 % 2.86 C
907 04-02-2016 00:00:00 4.62118 C 90.7153 % 3.24 C
908 05-02-2016 00:00:00 7.46076 C 91.2847 % 6.13 C
909 06-02-2016 00:00:00 8.36806 C 86.5069 % 6.25 C
910 07-02-2016 00:00:00 9.22743 C 76.8021 % 5.37 C
911 08-02-2016 00:00:00 8.09062 C 80.4167 % 4.93 C
912 09-02-2016 00:00:00 7.11076 C 85.9306 % 4.92 C
913 10-02-2016 00:00:00 4.86562 C 85.1493 % 2.59 C
914 11-02-2016 00:00:00 4.89444 C 87.2674 % 2.96 C
915 12-02-2016 00:00:00 3.0316 C 85.9826 % 0.92 C
916 13-02-2016 00:00:00 1.57049 C 93.5625 % 0.65 C
917 14-02-2016 00:00:00 4.64965 C 94.9931 % 3.92 C
918 15-02-2016 00:00:00 2.20278 C 91.7396 % 1 C
919 16-02-2016 00:00:00 0.19792 C 81.4688 % -2.59 C
920 17-02-2016 00:00:00 0.40625 C 88.6771 % -1.24 C
921 18-02-2016 00:00:00 2.11285 C 85.4514 % -0.07 C
922 19-02-2016 00:00:00 1.43507 C 92.3472 % 0.33 C
923 20-02-2016 00:00:00 6.41528 C 92.1944 % 5.24 C
924 21-02-2016 00:00:00 11.8375 C 88.1042 % 9.93 C
925 22-02-2016 00:00:00 9.57778 C 85.1250 % 7.21 C
Sensor: Nr:Datum:Temp:Feuchte:Taupunkt:
Aussen-T/F 926 23-02-2016 00:00:00 2.26424 C 95.8333 % 1.67 C
927 24-02-2016 00:00:00 2.15243 C 91.2674 % 0.88 C
928 25-02-2016 00:00:00 0.66597 C 90.3507 % -0.73 C
929 26-02-2016 00:00:00 2.36771 C 85.4931 % 0.19 C
930 27-02-2016 00:00:00 2.35694 C 77.3333 % -1.19 C
931 28-02-2016 00:00:00 2.12509 C 77.4145 % -1.4 C
932 29-02-2016 00:00:00 3.32569 C 70.7847 % -1.46 C
933 01-03-2016 00:00:00 1.1875 C 81.7361 % -1.58 C
934 02-03-2016 00:00:00 6.5125 C 83.4375 % 3.91 C
935 03-03-2016 00:00:00 3.61736 C 87.0208 % 1.66 C
936 04-03-2016 00:00:00 1.76528 C 93.4722 % 0.83 C
937 05-03-2016 00:00:00 4.32153 C 92.1042 % 3.16 C
938 06-03-2016 00:00:00 3.0434 C 94.2535 % 2.21 C
939 07-03-2016 00:00:00 2.40347 C 93.7049 % 1.5 C
940 08-03-2016 00:00:00 1.75521 C 90.5972 % 0.39 C
941 09-03-2016 00:00:00 2.60799 C 83.1042 % 0.04 C
942 10-03-2016 00:00:00 2.73576 C 83.8264 % 0.28 C
943 11-03-2016 00:00:00 4.25868 C 83.4757 % 1.71 C
944 12-03-2016 00:00:00 4.36424 C 78.1215 % 0.9 C
945 13-03-2016 00:00:00 5.06944 C 77.3924 % 1.45 C
946 14-03-2016 00:00:00 4.20451 C 71.0174 % -0.57 C
947 15-03-2016 00:00:00 3.53264 C 80.5833 % 0.52 C
948 16-03-2016 00:00:00 4.7066 C 73.0556 % 0.3 C
949 17-03-2016 00:00:00 4.57049 C 75.0625 % 0.54 C
950 18-03-2016 00:00:00 3.8934 C 83.0868 % 1.29 C
Sensor: Nr:Datum:Temp:Feuchte:Taupunkt:
Aussen-T/F 951 19-03-2016 00:00:00 5.67465 C 87.0938 % 3.7 C
952 20-03-2016 00:00:00 5.89583 C 80.9514 % 2.88 C
953 21-03-2016 00:00:00 7.0625 C 84.7813 % 4.68 C
954 22-03-2016 00:00:00 8.10035 C 79.6354 % 4.8 C
955 23-03-2016 00:00:00 7.93438 C 81.8576 % 5.03 C
956 24-03-2016 00:00:00 7.05069 C 85.9410 % 4.86 C
957 25-03-2016 00:00:00 6.93125 C 92.5347 % 5.81 C
958 26-03-2016 00:00:00 9.02778 C 82.5382 % 6.22 C
959 27-03-2016 00:00:00 9.36558 C 82.0543 % 6.46 C
960 28-03-2016 00:00:00 8.24167 C 84.3993 % 5.77 C
961 29-03-2016 00:00:00 9.19792 C 74.2535 % 4.86 C
962 30-03-2016 00:00:00 9.98958 C 84.7431 % 7.54 C
963 31-03-2016 00:00:00 7.10243 C 92.7153 % 6 C
964 01-04-2016 00:00:00 7.02396 C 85.1076 % 4.7 C
965 02-04-2016 00:00:00 8.56007 C 85.2361 % 6.23 C
966 03-04-2016 00:00:00 13.56285 C 81.3472 % 10.43 C
967 04-04-2016 00:00:00 13.63299 C 81.7951 % 10.58 C
968 05-04-2016 00:00:00 11.25069 C 92.5313 % 10.09 C
969 06-04-2016 00:00:00 10.87153 C 79.3507 % 7.44 C
970 07-04-2016 00:00:00 8.49479 C 75.7014 % 4.46 C
971 08-04-2016 00:00:00 6.48403 C 79.6181 % 3.22 C
972 09-04-2016 00:00:00 8.00139 C 72.3785 % 3.34 C
973 10-04-2016 00:00:00 11.74757 C 69.9479 % 6.45 C
974 11-04-2016 00:00:00 12.00972 C 70.4757 % 6.81 C
975 12-04-2016 00:00:00 11.31181 C 78.9861 % 7.8 C
Sensor: Nr:Datum:Temp:Feuchte:Taupunkt:
Aussen-T/F 976 13-04-2016 00:00:00 8.81354 C 93.8854 % 7.88 C
977 14-04-2016 00:00:00 10.59722 C 80.6215 % 7.41 C
978 15-04-2016 00:00:00 13.04618 C 74.1493 % 8.55 C
979 16-04-2016 00:00:00 11.99514 C 81.5035 % 8.93 C
980 17-04-2016 00:00:00 8.41111 C 77.1875 % 4.65 C
981 18-04-2016 00:00:00 7.11632 C 74.6910 % 2.94 C
982 19-04-2016 00:00:00 8.83507 C 72.7292 % 4.22 C
983 20-04-2016 00:00:00 9.1559 C 66.4826 % 3.25 C
984 21-04-2016 00:00:00 11.43229 C 64.2431 % 4.93 C
985 22-04-2016 00:00:00 13.17674 C 62.2014 % 6.11 C
986 23-04-2016 00:00:00 7.88299 C 78.2292 % 4.33 C
987 24-04-2016 00:00:00 5.24444 C 78.5243 % 1.82 C
988 25-04-2016 00:00:00 4.71632 C 85.9792 % 2.58 C
989 26-04-2016 00:00:00 4.5934 C 82.9306 % 1.95 C
990 27-04-2016 00:00:00 5.57465 C 78.2847 % 2.1 C
991 28-04-2016 00:00:00 6.65 C 71.1007 % 1.8 C
992 29-04-2016 00:00:00 7.88056 C 69.0972 % 2.58 C
993 30-04-2016 00:00:00 7.70174 C 83.3611 % 5.06 C
994 01-05-2016 00:00:00 10.10486 C 81.5451 % 7.09 C
995 02-05-2016 00:00:00 12.06389 C 73.2674 % 7.43 C
996 03-05-2016 00:00:00 10.93785 C 75.7222 % 6.83 C
997 04-05-2016 00:00:00 9.10035 C 68.4063 % 3.6 C
998 05-05-2016 00:00:00 11.45347 C 67.3507 % 5.63 C
999 06-05-2016 00:00:00 15.34618 C 68.6806 % 9.63 C
1000 07-05-2016 00:00:00 16.83542 C 65.2604 % 10.28 C
Sensor: Nr:Datum:Temp:Feuchte:Taupunkt:
Aussen-T/F 1001 08-05-2016 00:00:00 18.59861 C 52.5521 % 8.72 C
1002 09-05-2016 00:00:00 18.28715 C 61.7326 % 10.82 C
1003 10-05-2016 00:00:00 17.08646 C 77.6076 % 13.15 C
1004 11-05-2016 00:00:00 17.43438 C 75.9340 % 13.15 C
1005 12-05-2016 00:00:00 17.84271 C 69.8472 % 12.27 C
1006 13-05-2016 00:00:00 14.31736 C 89.5903 % 12.63 C
1007 14-05-2016 00:00:00 10.45972 C 71.9549 % 5.63 C
1008 15-05-2016 00:00:00 9.07743 C 70.0069 % 3.91 C
1009 16-05-2016 00:00:00 9.98819 C 70.5069 % 4.88 C
1010 17-05-2016 00:00:00 12.31563 C 69.0139 % 6.8 C
1011 18-05-2016 00:00:00 14.47535 C 74.1007 % 9.92 C
1012 19-05-2016 00:00:00 14.04722 C 75.6667 % 9.82 C
1013 20-05-2016 00:00:00 14.08125 C 79.6771 % 10.63 C
1014 21-05-2016 00:00:00 17.67708 C 74.5382 % 13.1 C
1015 22-05-2016 00:00:00 18.70312 C 72.9201 % 13.75 C
1016 23-05-2016 00:00:00 14.01632 C 83.2743 % 11.23 C
1017 24-05-2016 00:00:00 10.97431 C 91.3264 % 9.62 C
1018 25-05-2016 00:00:00 12.7125 C 87.5069 % 10.69 C
1019 26-05-2016 00:00:00 14.89826 C 81.0938 % 11.69 C
1020 27-05-2016 00:00:00 16.77849 C 90.6534 % 15.24 C
1021 28-05-2016 00:00:00 18.08383 C 88.8922 % 16.22 C
1022 29-05-2016 00:00:00 17.36528 C 89.6007 % 15.64 C
1023 30-05-2016 00:00:00 17.49722 C 93.2639 % 16.4 C
1024 31-05-2016 00:00:00 16.51458 C 87.4861 % 14.43 C
1025 01-06-2016 00:00:00 15.69931 C 94.7153 % 14.85 C
Sensor: Nr:Datum:Temp:Feuchte:Taupunkt:
Aussen-T/F 1026 02-06-2016 00:00:00 17.51979 C 92.0035 % 16.21 C
1027 03-06-2016 00:00:00 16.76875 C 94.6806 % 15.91 C
1028 04-06-2016 00:00:00 17.85104 C 90.8472 % 16.34 C
1029 05-06-2016 00:00:00 19.18611 C 89.0486 % 17.34 C
1030 06-06-2016 00:00:00 19.18785 C 86.9896 % 16.97 C
1031 07-06-2016 00:00:00 19.88403 C 82.1597 % 16.75 C
1032 08-06-2016 00:00:00 19.56354 C 77.2500 % 15.47 C
1033 09-06-2016 00:00:00 17.3191 C 71.5556 % 12.13 C
1034 10-06-2016 00:00:00 16.15521 C 71.4444 % 10.99 C
1035 11-06-2016 00:00:00 17.56701 C 74.5035 % 12.99 C
1036 12-06-2016 00:00:00 17.18299 C 86.9931 % 15 C
1037 13-06-2016 00:00:00 15.94479 C 94.8472 % 15.12 C
1038 14-06-2016 00:00:00 16.36597 C 87.8507 % 14.35 C
1039 15-06-2016 00:00:00 15.42431 C 86.9340 % 13.26 C
1040 16-06-2016 00:00:00 13.77292 C 93.5903 % 12.76 C
1041 17-06-2016 00:00:00 14.68889 C 90.7882 % 13.2 C
1042 18-06-2016 00:00:00 14.84861 C 87.4549 % 12.79 C
1043 19-06-2016 00:00:00 15.40278 C 75.9653 % 11.19 C
1044 20-06-2016 00:00:00 14.61979 C 81.8958 % 11.56 C
1045 21-06-2016 00:00:00 18.21736 C 88.4757 % 16.28 C
1046 22-06-2016 00:00:00 20.84792 C 87.8333 % 18.76 C
1047 23-06-2016 00:00:00 23.76528 C 81.5243 % 20.41 C
1048 24-06-2016 00:00:00 22.11979 C 90.4826 % 20.49 C
1049 25-06-2016 00:00:00 16.85451 C 95.9306 % 16.2 C
1050 26-06-2016 00:00:00 15.41562 C 85.3854 % 12.98 C
Sensor: Nr:Datum:Temp:Feuchte:Taupunkt:
Aussen-T/F 1051 27-06-2016 00:00:00 15.91562 C 86.7743 % 13.72 C
1052 28-06-2016 00:00:00 18.26597 C 84.3646 % 15.58 C
1053 29-06-2016 00:00:00 19.04444 C 74.5521 % 14.42 C
1054 30-06-2016 00:00:00 18.7566 C 80.8264 % 15.4 C
1055 01-07-2016 00:00:00 19.88194 C 81.0556 % 16.54 C
1056 02-07-2016 00:00:00 16.90868 C 78.6840 % 13.18 C
1057 03-07-2016 00:00:00 15.21559 C 83.5437 % 12.45 C
1058 04-07-2016 00:00:00 17.43333 C 82.9201 % 14.5 C
1059 05-07-2016 00:00:00 19.40903 C 78.1979 % 15.51 C
1060 06-07-2016 00:00:00 16.61042 C 74.0104 % 11.96 C
1061 07-07-2016 00:00:00 17.08576 C 77.8785 % 13.2 C
1062 08-07-2016 00:00:00 18.87222 C 80.7292 % 15.49 C
1063 09-07-2016 00:00:00 21.08889 C 76.2778 % 16.75 C
1064 10-07-2016 00:00:00 21.92535 C 79.2431 % 18.17 C
1065 11-07-2016 00:00:00 21.61701 C 73.7326 % 16.73 C
1066 12-07-2016 00:00:00 19.06354 C 74.7049 % 14.47 C
1067 13-07-2016 00:00:00 14.71319 C 91.3750 % 13.32 C
1068 14-07-2016 00:00:00 14.94583 C 79.4063 % 11.42 C
1069 15-07-2016 00:00:00 16.08229 C 74.0417 % 11.46 C
1070 16-07-2016 00:00:00 16.98542 C 83.0451 % 14.09 C
1071 17-07-2016 00:00:00 21.34757 C 80.4132 % 17.84 C
1072 18-07-2016 00:00:00 21.85069 C 75.3924 % 17.3 C
1073 19-07-2016 00:00:00 21.61667 C 78.1597 % 17.65 C
1074 20-07-2016 00:00:00 23.34097 C 74.8785 % 18.63 C
1075 21-07-2016 00:00:00 21.23924 C 86.6632 % 18.93 C
Sensor: Nr:Datum:Temp:Feuchte:Taupunkt:
Aussen-T/F 1076 22-07-2016 00:00:00 20.96806 C 88.7674 % 19.04 C
1077 23-07-2016 00:00:00 20.3434 C 91.5104 % 18.91 C
1078 24-07-2016 00:00:00 22.0941 C 85.4583 % 19.54 C
1079 25-07-2016 00:00:00 21.8191 C 81.6910 % 18.55 C
1080 26-07-2016 00:00:00 20.20208 C 86.3333 % 17.85 C
1081 27-07-2016 00:00:00 19.62986 C 81.0313 % 16.29 C
1082 28-07-2016 00:00:00 20.20174 C 82.7986 % 17.18 C
1083 29-07-2016 00:00:00 19.81042 C 85.1319 % 17.24 C
1084 30-07-2016 00:00:00 20.55278 C 78.7326 % 16.73 C
1085 31-07-2016 00:00:00 18.14444 C 80.7535 % 14.79 C
1086 01-08-2016 00:00:00 16.63958 C 78.4757 % 12.88 C
1087 02-08-2016 00:00:00 16.16875 C 92.2986 % 14.92 C
1088 03-08-2016 00:00:00 18.55174 C 94.0938 % 17.58 C
1089 04-08-2016 00:00:00 18.01667 C 94.7188 % 17.16 C
1090 05-08-2016 00:00:00 16.58403 C 88.5486 % 14.69 C
1091 06-08-2016 00:00:00 17.59097 C 86.3924 % 15.29 C
1092 07-08-2016 00:00:00 18.92153 C 81.4306 % 15.67 C
1093 08-08-2016 00:00:00 19.25521 C 77.6701 % 15.26 C
1094 09-08-2016 00:00:00 16.42986 C 72.2361 % 11.42 C
1095 10-08-2016 00:00:00 13.02465 C 80.0243 % 9.66 C
1096 11-08-2016 00:00:00 12.3 C 83.5417 % 9.6 C

Maximal/Minimal-Werte vom 12.08.2013 - 11.08.2016

Sensor Min Max Avg
Temp
(Aussen-T/F)
-7.7 °C
20-01-2016  00:35:00
38.6 °C
04-07-2015  16:30:00
11.33 °C
Feuchte
(Aussen-T/F)
18 %
17-07-2015  15:55:00
100 %
18-08-2013  10:40:00
83.62 %
Taupunkt
(Aussen-T/F)
-6.7 C
19-01-2016  00:00:00
21.29 C
04-07-2015  00:00:00
8.5 C

Die Daten stammen von einer Davis Vantage Pro 2 Wetter-Station und werden unter Linux mit der Software wview2wettercgi und aufbereitet. Alle Angaben erfolgen ohne Gewähr für ihre Vollständigkeit oder Richtigkeit.
Kontakt: Rainer Krienke krienke@uni-koblenz.de . Meine Webseiten an der Uni Koblenz oder privat.
Version: $Revision: 0.78 $